Time;durP1;ratioP1;P1;durP2;ratioP2;P2;SDS_P1;SDS_P2;PMS_P1;PMS_P2;Temp;Humidity;BMP_temperature;BMP_pressure;BME280_temperature;BME280_humidity;BME280_pressure;Samples;Min_cycle;Max_cycle;Signal;HPM_P1;HPM_P2
2021/05/30 00:00:13;;;;;;;5.32;3.60;;;17.90;80.00;;;;;;5072208;28;20052;-64
2021/05/30 00:02:39;;;;;;;6.50;4.75;;;17.90;80.60;;;;;;5076720;28;20025;-64
2021/05/30 00:05:07;;;;;;;5.00;4.50;;;17.80;80.40;;;;;;5076289;28;20044;-64
2021/05/30 00:07:33;;;;;;;5.47;4.57;;;17.80;80.70;;;;;;5076754;28;20106;-64
2021/05/30 00:09:58;;;;;;;7.88;4.38;;;17.80;81.00;;;;;;5076603;28;20436;-64
2021/05/30 00:12:25;;;;;;;9.45;4.80;;;17.80;81.00;;;;;;5070454;28;20109;-64
2021/05/30 00:14:50;;;;;;;6.75;5.00;;;17.70;81.30;;;;;;5056337;28;20096;-64
2021/05/30 00:17:16;;;;;;;4.65;4.25;;;17.70;81.60;;;;;;5065849;28;20113;-64
2021/05/30 00:19:43;;;;;;;5.32;4.82;;;17.70;81.70;;;;;;5056231;28;20053;-64
2021/05/30 00:22:09;;;;;;;4.15;3.75;;;17.70;82.10;;;;;;5056095;28;20029;-64
2021/05/30 00:24:36;;;;;;;3.30;2.95;;;17.70;81.60;;;;;;5073027;28;20070;-64
2021/05/30 00:27:02;;;;;;;2.92;2.72;;;17.60;80.70;;;;;;5076056;28;20028;-64
2021/05/30 00:29:28;;;;;;;3.28;2.75;;;17.60;80.00;;;;;;5076180;28;20032;-64
2021/05/30 00:31:54;;;;;;;3.25;2.60;;;17.60;79.50;;;;;;5075943;28;20029;-64
2021/05/30 00:34:20;;;;;;;3.47;2.83;;;17.60;79.40;;;;;;5076004;28;20100;-64
2021/05/30 00:36:46;;;;;;;3.40;3.10;;;17.60;79.50;;;;;;5076063;28;20025;-64
2021/05/30 00:39:11;;;;;;;3.90;3.22;;;17.60;79.60;;;;;;5076029;28;20494;-64
2021/05/30 00:41:37;;;;;;;3.13;2.90;;;17.60;79.40;;;;;;5073913;28;20021;-64
2021/05/30 00:44:28;;;;;;;2.83;2.63;;;17.60;79.50;;;;;;5071636;28;20069;-64
2021/05/30 00:46:55;;;;;;;3.05;2.75;;;17.50;79.40;;;;;;5075730;28;20041;-64
2021/05/30 00:49:22;;;;;;;4.13;3.10;;;17.50;79.20;;;;;;5074997;28;20354;-64
2021/05/30 00:51:48;;;;;;;3.17;2.85;;;17.50;79.20;;;;;;5075323;28;20055;-64
2021/05/30 00:54:15;;;;;;;4.03;3.40;;;17.60;79.30;;;;;;5075554;28;20025;-64
2021/05/30 00:56:41;;;;;;;4.30;3.80;;;17.60;79.60;;;;;;5075769;28;20020;-64
2021/05/30 00:59:10;;;;;;;5.43;3.90;;;17.50;80.00;;;;;;5075682;28;20087;-64
2021/05/30 01:01:36;;;;;;;4.85;4.22;;;17.60;80.50;;;;;;5071183;28;20027;-64
2021/05/30 01:04:03;;;;;;;6.15;4.40;;;17.50;80.90;;;;;;5075720;28;20032;-64
2021/05/30 01:06:29;;;;;;;6.35;4.72;;;17.50;81.20;;;;;;5075270;28;20025;-64
2021/05/30 01:08:55;;;;;;;4.88;4.47;;;17.50;81.10;;;;;;5075142;28;20460;-64
2021/05/30 01:11:23;;;;;;;5.63;5.13;;;17.50;81.50;;;;;;5074394;28;20031;-64
2021/05/30 01:13:53;;;;;;;7.30;5.50;;;17.50;81.30;;;;;;5075531;28;20380;-64
2021/05/30 01:16:21;;;;;;;5.70;5.03;;;17.40;81.30;;;;;;5073956;28;20059;-64
2021/05/30 01:18:55;;;;;;;5.75;5.15;;;17.40;81.60;;;;;;5066658;28;20071;-64
2021/05/30 01:21:22;;;;;;;5.60;5.00;;;17.40;81.70;;;;;;5074531;28;20056;-64
2021/05/30 01:23:57;;;;;;;5.90;4.90;;;17.30;81.80;;;;;;5067353;28;20063;-64
2021/05/30 01:26:24;;;;;;;7.15;5.22;;;17.30;81.80;;;;;;5075032;28;20091;-64
2021/05/30 01:28:50;;;;;;;5.35;4.78;;;17.20;81.90;;;;;;5074900;28;20538;-64
2021/05/30 01:31:16;;;;;;;6.93;5.25;;;17.20;82.10;;;;;;5074883;28;20024;-64
2021/05/30 01:33:42;;;;;;;5.80;5.20;;;17.10;82.10;;;;;;5073996;28;20021;-64
2021/05/30 01:36:08;;;;;;;7.20;6.03;;;17.10;82.30;;;;;;5074815;28;20043;-64
2021/05/30 01:38:34;;;;;;;7.80;6.05;;;17.00;82.60;;;;;;5074890;28;20505;-64
2021/05/30 01:41:00;;;;;;;6.50;5.60;;;17.00;82.60;;;;;;5074797;28;20430;-64
2021/05/30 01:43:26;;;;;;;7.32;5.50;;;17.00;82.90;;;;;;5074766;28;20406;-64
2021/05/30 01:45:52;;;;;;;5.70;5.13;;;16.90;82.90;;;;;;5074761;28;20396;-64
2021/05/30 01:48:17;;;;;;;8.20;5.78;;;16.90;82.90;;;;;;5072201;28;20031;-64
2021/05/30 01:50:47;;;;;;;7.43;5.63;;;16.80;83.10;;;;;;5071640;28;20167;-64
2021/05/30 01:53:17;;;;;;;6.57;5.25;;;16.80;83.40;;;;;;5074512;28;20054;-64
2021/05/30 01:58:14;;;;;;;6.70;5.55;;;16.70;83.50;;;;;;5074642;28;20269;-64
2021/05/30 02:00:40;;;;;;;6.25;5.65;;;16.70;83.60;;;;;;5074471;28;20036;-64
2021/05/30 02:03:07;;;;;;;6.32;5.30;;;16.60;83.70;;;;;;5074658;28;20043;-64
2021/05/30 02:05:34;;;;;;;6.72;6.03;;;16.60;83.80;;;;;;5067613;28;20029;-64
2021/05/30 02:08:00;;;;;;;6.60;5.72;;;16.60;84.20;;;;;;5067707;28;20032;-64
2021/05/30 02:10:27;;;;;;;6.05;5.40;;;16.50;84.30;;;;;;5074111;28;20028;-64
2021/05/30 02:12:55;;;;;;;8.10;5.30;;;16.50;84.40;;;;;;5074085;28;20377;-64
2021/05/30 02:15:22;;;;;;;6.95;5.20;;;16.50;84.80;;;;;;5074150;28;20468;-64
2021/05/30 02:17:48;;;;;;;6.40;5.60;;;16.50;85.00;;;;;;5074050;28;20127;-64
2021/05/30 02:20:17;;;;;;;5.90;5.28;;;16.50;85.10;;;;;;5073557;28;20085;-64
2021/05/30 02:22:43;;;;;;;5.65;4.82;;;16.60;85.40;;;;;;5073744;28;20093;-64
2021/05/30 02:25:10;;;;;;;7.68;4.95;;;16.60;85.80;;;;;;5074157;28;20157;-64
2021/05/30 02:27:36;;;;;;;6.55;5.47;;;16.60;85.90;;;;;;5074162;28;20504;-64
2021/05/30 02:30:02;;;;;;;5.55;4.88;;;16.70;86.00;;;;;;5073978;28;20036;-64
2021/05/30 02:32:28;;;;;;;5.65;5.00;;;16.70;86.00;;;;;;5073636;28;20392;-64
2021/05/30 02:34:54;;;;;;;5.45;4.90;;;16.80;85.80;;;;;;5073751;28;20025;-64
2021/05/30 02:37:20;;;;;;;5.50;4.88;;;16.80;85.90;;;;;;5069340;28;20016;-64
2021/05/30 02:39:45;;;;;;;8.68;4.43;;;16.90;85.90;;;;;;5053942;28;20047;-64
2021/05/30 02:42:12;;;;;;;3.95;3.30;;;16.90;85.40;;;;;;5053815;28;20473;-64
2021/05/30 02:44:38;;;;;;;3.47;3.13;;;17.00;85.00;;;;;;5053653;28;20020;-64
2021/05/30 02:47:04;;;;;;;2.90;2.70;;;17.00;84.60;;;;;;5053341;28;20163;-64
2021/05/30 02:49:32;;;;;;;3.45;2.80;;;17.10;84.00;;;;;;5063862;28;20086;-64
2021/05/30 02:51:58;;;;;;;3.20;2.90;;;17.30;83.50;;;;;;5073322;28;20086;-64
2021/05/30 02:54:24;;;;;;;3.47;3.17;;;17.30;82.90;;;;;;5070560;28;20025;-64
2021/05/30 02:56:50;;;;;;;3.20;2.90;;;17.40;82.30;;;;;;5053746;28;20104;-64
2021/05/30 02:59:15;;;;;;;4.10;3.25;;;17.50;81.80;;;;;;5053415;28;20025;-64
2021/05/30 03:01:41;;;;;;;3.50;2.80;;;17.60;81.40;;;;;;5053322;28;20112;-64
2021/05/30 03:04:07;;;;;;;4.40;3.20;;;17.60;80.60;;;;;;5053254;28;20036;-64
2021/05/30 03:06:33;;;;;;;3.20;2.90;;;17.60;80.40;;;;;;5064554;28;20535;-64
2021/05/30 03:08:59;;;;;;;4.00;3.08;;;17.60;80.30;;;;;;5072241;28;20590;-64
2021/05/30 03:11:26;;;;;;;3.10;2.63;;;17.60;80.00;;;;;;5072879;28;20083;-64
2021/05/30 03:13:53;;;;;;;3.17;2.90;;;17.60;80.00;;;;;;5060383;28;20056;-64
2021/05/30 03:16:20;;;;;;;3.75;2.72;;;17.60;79.80;;;;;;5072867;28;20029;-64
2021/05/30 03:18:46;;;;;;;3.10;2.80;;;17.60;79.90;;;;;;5066633;28;20377;-64
2021/05/30 03:21:12;;;;;;;3.65;2.75;;;17.60;80.20;;;;;;5052921;28;20044;-64
2021/05/30 03:23:38;;;;;;;3.35;3.05;;;17.70;80.30;;;;;;5061658;28;20025;-64
2021/05/30 03:26:03;;;;;;;4.30;3.00;;;17.80;81.80;;;;;;5072879;28;20046;-64
2021/05/30 03:28:29;;;;;;;3.40;3.10;;;17.90;81.60;;;;;;5072626;28;20361;-64
2021/05/30 03:30:55;;;;;;;4.25;3.30;;;18.10;81.60;;;;;;5072921;28;20025;-64
2021/05/30 03:33:21;;;;;;;3.30;3.00;;;18.40;81.90;;;;;;5072659;28;20056;-64
2021/05/30 03:35:46;;;;;;;3.28;2.97;;;18.70;82.10;;;;;;5072718;28;20024;-64
2021/05/30 03:38:15;;;;;;;2.75;2.55;;;19.20;81.90;;;;;;5072821;28;20419;-64
2021/05/30 03:43:07;;;;;;;3.20;2.90;;;20.40;79.90;;;;;;5068661;28;20116;-64
2021/05/30 03:45:33;;;;;;;3.45;2.40;;;21.20;77.60;;;;;;5072853;28;20107;-64
2021/05/30 03:47:58;;;;;;;2.88;2.58;;;22.10;75.00;;;;;;5072656;28;20083;-64
2021/05/30 03:50:24;;;;;;;3.17;2.40;;;23.00;72.30;;;;;;5072928;28;20036;-64
2021/05/30 03:52:50;;;;;;;2.42;2.22;;;23.70;69.20;;;;;;5072672;28;20469;-64
2021/05/30 03:55:16;;;;;;;3.63;2.40;;;24.30;66.70;;;;;;5072634;28;20160;-64
2021/05/30 03:57:42;;;;;;;3.50;2.30;;;25.00;64.80;;;;;;5072826;28;20020;-64
2021/05/30 04:00:14;;;;;;;2.72;2.40;;;25.60;62.80;;;;;;5071716;28;20396;-64
2021/05/30 04:02:40;;;;;;;2.05;1.92;;;26.00;60.70;;;;;;5069237;28;20031;-64
2021/05/30 04:05:06;;;;;;;2.05;1.95;;;26.50;59.90;;;;;;5072680;28;20111;-64
2021/05/30 04:07:33;;;;;;;2.35;2.15;;;27.10;58.90;;;;;;5072916;28;20028;-64
2021/05/30 04:10:06;;;;;;;2.40;2.20;;;27.80;57.80;;;;;;5072371;28;20061;-64
2021/05/30 04:12:32;;;;;;;2.45;2.15;;;28.40;56.30;;;;;;5072596;28;20058;-64
2021/05/30 04:14:58;;;;;;;1.98;1.88;;;28.90;55.10;;;;;;5072489;28;20019;-64
2021/05/30 04:17:23;;;;;;;2.50;2.30;;;29.30;53.60;;;;;;5067697;28;20481;-64
2021/05/30 04:19:49;;;;;;;3.03;2.00;;;29.60;52.70;;;;;;5063863;28;20473;-64
2021/05/30 04:22:15;;;;;;;2.35;2.15;;;29.80;51.70;;;;;;5072560;28;20021;-64
2021/05/30 04:24:40;;;;;;;1.88;1.77;;;29.70;51.20;;;;;;5069350;28;20362;-64
2021/05/30 04:27:06;;;;;;;2.00;1.85;;;29.50;50.90;;;;;;5072306;28;20420;-64
2021/05/30 04:29:32;;;;;;;2.33;2.13;;;29.30;50.70;;;;;;5071806;28;20547;-64
2021/05/30 04:31:59;;;;;;;2.72;2.13;;;28.90;50.20;;;;;;5071876;28;20377;-64
2021/05/30 04:34:24;;;;;;;4.22;2.60;;;28.30;50.60;;;;;;5072006;28;20035;-64
2021/05/30 04:36:50;;;;;;;2.42;2.22;;;27.70;50.80;;;;;;5072263;28;20017;-64
2021/05/30 04:39:16;;;;;;;3.08;2.22;;;27.20;52.10;;;;;;5072431;28;20020;-64
2021/05/30 04:41:41;;;;;;;2.92;2.28;;;27.30;52.80;;;;;;5072338;28;20032;-64
2021/05/30 04:44:07;;;;;;;1.88;1.77;;;27.80;52.80;;;;;;5072202;28;20028;-64
2021/05/30 04:46:32;;;;;;;2.33;2.08;;;28.20;51.70;;;;;;5072214;28;20047;-64
2021/05/30 04:48:58;;;;;;;1.83;1.73;;;28.60;51.30;;;;;;5073934;28;20024;-64
2021/05/30 04:51:24;;;;;;;2.13;2.00;;;29.00;50.90;;;;;;5059004;28;20078;-64
2021/05/30 04:53:54;;;;;;;2.22;2.10;;;29.50;50.20;;;;;;5055900;28;20090;-64
2021/05/30 04:56:20;;;;;;;2.13;1.73;;;29.90;49.80;;;;;;5065174;28;20399;-64
2021/05/30 04:58:46;;;;;;;1.80;1.70;;;30.50;49.30;;;;;;5075630;28;20107;-64
2021/05/30 05:01:12;;;;;;;3.45;1.80;;;30.80;48.00;;;;;;5075566;28;20071;-64
2021/05/30 05:03:37;;;;;;;1.85;1.75;;;30.90;47.60;;;;;;5075512;28;20028;-64
2021/05/30 05:06:03;;;;;;;1.55;1.50;;;31.20;47.50;;;;;;5070921;28;20037;-64
2021/05/30 05:08:29;;;;;;;1.90;1.80;;;31.50;46.90;;;;;;5073328;28;20107;-64
2021/05/30 05:10:55;;;;;;;2.25;2.03;;;31.70;46.30;;;;;;5073121;28;20433;-64
2021/05/30 05:13:21;;;;;;;1.67;1.50;;;31.90;45.90;;;;;;5073127;28;20032;-64
2021/05/30 05:15:51;;;;;;;2.03;1.90;;;32.10;45.30;;;;;;5073280;28;20085;-63
2021/05/30 05:18:24;;;;;;;2.25;1.98;;;32.30;44.70;;;;;;5073208;28;20025;-63
2021/05/30 05:20:51;;;;;;;1.98;1.88;;;32.20;44.00;;;;;;5073160;28;20029;-63
2021/05/30 05:23:18;;;;;;;2.28;1.77;;;31.90;43.80;;;;;;5072126;28;20111;-65
2021/05/30 05:25:48;;;;;;;1.70;1.60;;;31.10;44.00;;;;;;5054675;28;20032;-63
2021/05/30 05:28:14;;;;;;;1.65;1.55;;;30.20;44.70;;;;;;5065239;28;20066;-64
2021/05/30 05:30:40;;;;;;;3.97;2.10;;;29.30;45.80;;;;;;5074613;28;20079;-65
2021/05/30 05:33:05;;;;;;;2.20;2.00;;;28.40;46.70;;;;;;5074933;28;20107;-65
2021/05/30 05:35:31;;;;;;;1.75;1.65;;;27.60;47.70;;;;;;5073856;28;20520;-65
2021/05/30 05:37:58;;;;;;;2.40;2.00;;;26.90;49.00;;;;;;5070498;28;20040;-65
2021/05/30 05:40:25;;;;;;;1.70;1.60;;;26.30;49.50;;;;;;5074811;28;20020;-65
2021/05/30 05:42:51;;;;;;;2.33;2.13;;;25.80;50.10;;;;;;5075184;28;20473;-65
2021/05/30 05:45:17;;;;;;;2.53;2.30;;;25.30;50.80;;;;;;5074751;28;20477;-65
2021/05/30 05:47:44;;;;;;;2.60;2.15;;;24.90;51.60;;;;;;5074504;28;20047;-64
2021/05/30 05:50:15;;;;;;;2.30;2.10;;;24.50;52.40;;;;;;5074591;28;20029;-64
2021/05/30 05:52:41;;;;;;;2.38;2.10;;;24.20;53.00;;;;;;5071007;28;20075;-64
2021/05/30 05:55:08;;;;;;;2.55;2.00;;;23.90;53.20;;;;;;5074026;28;20473;-64
2021/05/30 05:57:35;;;;;;;2.20;2.10;;;23.70;54.10;;;;;;5073885;28;20020;-64
2021/05/30 06:00:04;;;;;;;2.10;2.00;;;23.50;54.40;;;;;;5073395;28;20035;-64
2021/05/30 06:02:29;;;;;;;2.17;2.00;;;23.20;55.00;;;;;;5074393;28;20024;-64
2021/05/30 06:04:55;;;;;;;2.50;2.30;;;23.00;55.30;;;;;;5074407;28;20032;-64
2021/05/30 06:07:22;;;;;;;2.22;2.03;;;22.80;55.90;;;;;;5074371;28;20376;-64
2021/05/30 06:09:47;;;;;;;2.28;2.10;;;22.60;56.20;;;;;;5074132;28;20021;-64
2021/05/30 06:12:13;;;;;;;2.90;2.35;;;22.50;56.50;;;;;;5069747;28;20362;-64
2021/05/30 06:14:39;;;;;;;2.55;2.35;;;22.40;57.00;;;;;;5059065;28;20017;-64
2021/05/30 06:17:05;;;;;;;2.25;2.10;;;22.30;57.60;;;;;;5055818;28;20021;-64
2021/05/30 06:19:32;;;;;;;3.75;2.40;;;22.30;57.90;;;;;;5073926;28;20032;-64
2021/05/30 06:21:57;;;;;;;2.20;2.00;;;22.20;58.00;;;;;;5074098;28;20334;-64
2021/05/30 06:24:23;;;;;;;2.67;2.47;;;22.20;58.40;;;;;;5073887;28;20032;-64
2021/05/30 06:26:49;;;;;;;2.67;2.35;;;22.20;58.60;;;;;;5073777;28;20098;-64
2021/05/30 06:29:14;;;;;;;2.63;2.42;;;22.20;59.20;;;;;;5073627;28;20021;-64
2021/05/30 06:31:40;;;;;;;2.60;2.30;;;22.10;58.50;;;;;;5073909;28;20016;-64
2021/05/30 06:34:07;;;;;;;2.58;2.38;;;22.00;58.50;;;;;;5073731;28;20024;-64
2021/05/30 06:36:33;;;;;;;2.53;2.33;;;21.90;59.10;;;;;;5074009;28;20047;-64
2021/05/30 06:38:59;;;;;;;2.40;2.20;;;21.80;59.30;;;;;;5073714;28;20017;-64
2021/05/30 06:41:24;;;;;;;2.08;1.98;;;21.70;59.30;;;;;;5073773;28;20025;-64
2021/05/30 06:43:51;;;;;;;2.40;2.20;;;21.60;59.50;;;;;;5068828;28;20028;-64
2021/05/30 06:46:17;;;;;;;2.30;2.20;;;21.60;59.80;;;;;;5073173;28;20045;-64
2021/05/30 06:48:42;;;;;;;2.70;2.50;;;21.50;60.00;;;;;;5073555;28;20040;-64
2021/05/30 06:51:16;;;;;;;3.63;2.60;;;21.40;60.60;;;;;;5073451;28;20032;-64
2021/05/30 06:53:46;;;;;;;2.42;2.22;;;21.30;60.60;;;;;;5073549;28;20028;-64
2021/05/30 06:56:11;;;;;;;3.80;2.28;;;21.30;60.70;;;;;;5073352;28;20024;-64
2021/05/30 06:58:37;;;;;;;2.50;2.13;;;21.30;61.20;;;;;;5072944;28;20077;-64
2021/05/30 07:01:03;;;;;;;1.85;1.75;;;21.30;61.00;;;;;;5070992;28;20066;-64
2021/05/30 07:03:29;;;;;;;3.28;2.00;;;21.30;60.70;;;;;;5072128;28;20036;-64
2021/05/30 07:05:54;;;;;;;2.15;2.00;;;21.30;60.70;;;;;;5072059;28;20032;-64
2021/05/30 07:08:20;;;;;;;2.50;2.15;;;21.30;60.40;;;;;;5072175;28;20040;-64
2021/05/30 07:10:45;;;;;;;1.92;1.83;;;21.30;60.60;;;;;;5072787;28;20035;-64
2021/05/30 07:13:11;;;;;;;2.00;1.80;;;21.20;61.00;;;;;;5073021;28;20035;-64
2021/05/30 07:15:37;;;;;;;2.47;2.28;;;21.20;61.10;;;;;;5072961;28;20048;-64
2021/05/30 07:18:02;;;;;;;1.90;1.80;;;21.20;61.20;;;;;;5072993;28;20017;-64
2021/05/30 07:20:28;;;;;;;2.35;2.03;;;21.10;61.40;;;;;;5072924;28;20059;-64
2021/05/30 07:22:54;;;;;;;2.67;2.03;;;21.10;61.50;;;;;;5073416;28;20060;-64
2021/05/30 07:25:19;;;;;;;2.38;2.17;;;21.10;61.50;;;;;;5063924;28;20556;-64
2021/05/30 07:27:45;;;;;;;2.55;2.22;;;21.00;61.10;;;;;;5053193;28;20466;-64
2021/05/30 07:30:11;;;;;;;2.65;2.40;;;21.00;61.20;;;;;;5057533;28;20423;-64
2021/05/30 07:32:37;;;;;;;2.17;2.08;;;21.00;61.40;;;;;;5070448;28;20447;-64
2021/05/30 07:35:03;;;;;;;2.10;2.00;;;21.00;61.70;;;;;;5072742;28;20051;-64
2021/05/30 07:37:28;;;;;;;2.00;1.90;;;21.00;61.60;;;;;;5072528;28;20048;-64
2021/05/30 07:39:54;;;;;;;2.00;1.90;;;21.00;61.50;;;;;;5072685;28;20060;-64
2021/05/30 07:42:20;;;;;;;2.40;2.20;;;21.10;61.70;;;;;;5072901;28;20021;-64
2021/05/30 07:44:45;;;;;;;2.33;2.13;;;21.10;61.30;;;;;;5072902;28;20025;-64
2021/05/30 07:47:11;;;;;;;2.15;1.73;;;21.10;61.10;;;;;;5068114;28;20064;-64
2021/05/30 07:49:36;;;;;;;2.30;2.20;;;21.10;61.20;;;;;;5072774;28;20032;-64
2021/05/30 07:52:03;;;;;;;2.15;2.05;;;21.00;61.40;;;;;;5073136;28;20377;-64
2021/05/30 07:54:28;;;;;;;2.30;2.13;;;21.00;61.60;;;;;;5072926;28;20132;-64
2021/05/30 07:56:54;;;;;;;6.57;3.55;;;21.00;61.50;;;;;;5073049;28;20052;-64
2021/05/30 07:59:20;;;;;;;3.08;2.80;;;21.00;61.40;;;;;;5073010;28;20031;-64
2021/05/30 08:01:48;;;;;;;4.10;2.38;;;21.10;61.80;;;;;;5072762;28;20021;-64
2021/05/30 08:04:14;;;;;;;2.40;2.30;;;21.10;61.90;;;;;;5071752;28;20067;-64
2021/05/30 08:06:39;;;;;;;2.60;2.00;;;21.00;61.40;;;;;;5069451;28;20480;-64
2021/05/30 08:09:05;;;;;;;2.40;2.20;;;21.10;61.40;;;;;;5071423;28;20043;-64
2021/05/30 08:11:31;;;;;;;3.03;2.13;;;21.10;61.60;;;;;;5072114;28;20093;-64
2021/05/30 08:13:57;;;;;;;2.50;2.30;;;21.10;61.60;;;;;;5072400;28;20377;-64
2021/05/30 08:16:23;;;;;;;2.50;2.28;;;21.10;61.70;;;;;;5072727;28;20098;-64
2021/05/30 08:18:49;;;;;;;2.00;1.90;;;21.10;61.60;;;;;;5072495;28;20464;-64
2021/05/30 08:21:15;;;;;;;2.33;2.13;;;21.10;61.20;;;;;;5075166;28;20035;-64
2021/05/30 08:23:44;;;;;;;2.53;2.28;;;21.10;61.60;;;;;;5076360;28;20029;-64
2021/05/30 08:26:10;;;;;;;2.50;2.30;;;21.10;62.00;;;;;;5076184;28;20028;-64
2021/05/30 08:28:36;;;;;;;4.10;3.58;;;21.20;61.80;;;;;;5076084;28;20086;-64
2021/05/30 08:31:02;;;;;;;2.95;2.25;;;21.20;61.70;;;;;;5076181;28;20487;-64
2021/05/30 08:33:29;;;;;;;2.70;2.50;;;21.20;61.60;;;;;;5076125;28;20016;-64
2021/05/30 08:35:56;;;;;;;2.33;2.13;;;21.20;61.40;;;;;;5071830;28;20025;-64
2021/05/30 08:38:22;;;;;;;2.55;2.35;;;21.10;61.60;;;;;;5076069;28;20024;-64
2021/05/30 08:40:49;;;;;;;2.40;2.20;;;21.10;61.70;;;;;;5075933;28;20024;-64
2021/05/30 08:43:15;;;;;;;2.80;2.60;;;21.10;61.40;;;;;;5076029;28;20426;-64
2021/05/30 08:45:43;;;;;;;2.95;2.40;;;21.10;62.00;;;;;;5075663;28;20024;-64
2021/05/30 08:48:09;;;;;;;2.47;2.22;;;21.10;61.80;;;;;;5075599;28;20443;-64
2021/05/30 08:50:35;;;;;;;2.72;2.50;;;21.10;61.70;;;;;;5075821;28;20033;-64
2021/05/30 08:53:01;;;;;;;2.17;2.00;;;21.10;61.90;;;;;;5071073;28;20035;-64
2021/05/30 08:55:27;;;;;;;2.67;2.35;;;21.20;61.90;;;;;;5075788;28;20500;-64
2021/05/30 08:57:52;;;;;;;2.17;2.08;;;21.20;61.90;;;;;;5075637;28;20030;-64
2021/05/30 09:00:26;;;;;;;2.45;2.25;;;21.20;61.80;;;;;;5075870;28;20032;-64
2021/05/30 09:03:12;;;;;;;2.05;1.95;;;21.20;61.60;;;;;;5075338;28;20106;-64
2021/05/30 09:05:38;;;;;;;2.22;2.05;;;21.30;61.70;;;;;;5075088;28;20115;-64
2021/05/30 09:08:04;;;;;;;2.78;2.20;;;21.30;61.80;;;;;;5075646;28;20065;-64
2021/05/30 09:10:29;;;;;;;2.20;2.10;;;21.30;61.60;;;;;;5070893;28;20040;-64
2021/05/30 09:13:11;;;;;;;1.98;1.88;;;21.40;61.40;;;;;;5058656;28;20018;-64
2021/05/30 09:18:44;;;;;;;2.17;1.98;;;21.40;61.20;;;;;;5013292;28;20222;-64
2021/05/30 09:21:12;;;;;;;2.13;2.00;;;21.40;61.50;;;;;;5013177;28;20124;-64
2021/05/30 09:23:40;;;;;;;3.38;2.42;;;21.40;61.00;;;;;;5042907;28;20032;-64
2021/05/30 09:26:24;;;;;;;1.88;1.77;;;21.40;60.70;;;;;;5065320;28;20072;-64
2021/05/30 09:29:11;;;;;;;1.85;1.75;;;21.40;60.80;;;;;;5055399;28;20393;-64
2021/05/30 09:31:57;;;;;;;2.20;2.10;;;21.40;61.40;;;;;;5063649;28;20476;-64
2021/05/30 09:34:28;;;;;;;2.03;1.92;;;21.40;61.40;;;;;;5074971;28;20020;-64
2021/05/30 09:36:55;;;;;;;2.20;2.00;;;21.40;61.00;;;;;;5061072;28;20082;-64
2021/05/30 09:39:33;;;;;;;2.15;1.80;;;21.40;61.10;;;;;;5074041;28;20039;-64
2021/05/30 09:42:25;;;;;;;2.05;1.95;;;21.40;61.00;;;;;;5070736;28;20024;-64
2021/05/30 09:44:55;;;;;;;2.05;1.92;;;21.40;61.10;;;;;;5075714;28;20047;-64
2021/05/30 09:47:36;;;;;;;2.58;2.00;;;21.30;61.10;;;;;;5075071;28;20094;-64
2021/05/30 09:50:10;;;;;;;2.22;1.85;;;21.30;60.70;;;;;;5075119;28;20025;-64
2021/05/30 09:52:49;;;;;;;2.58;2.38;;;21.30;60.90;;;;;;5075292;28;20094;-64
2021/05/30 09:55:26;;;;;;;4.82;3.00;;;21.20;61.20;;;;;;5074052;28;20036;-64
2021/05/30 09:58:09;;;;;;;2.38;2.17;;;21.20;61.50;;;;;;5060790;28;20107;-64
2021/05/30 10:00:35;;;;;;;1.95;1.85;;;21.20;61.40;;;;;;5071982;28;20032;-64
2021/05/30 10:03:01;;;;;;;2.38;2.22;;;21.30;61.40;;;;;;5066411;28;20078;-64
2021/05/30 10:05:27;;;;;;;2.08;1.88;;;21.30;61.40;;;;;;5071616;28;20048;-64
2021/05/30 10:07:54;;;;;;;2.17;1.98;;;21.30;61.30;;;;;;5071933;28;20025;-64
2021/05/30 10:10:20;;;;;;;1.80;1.70;;;21.40;61.30;;;;;;5072072;28;20169;-64
2021/05/30 10:12:47;;;;;;;2.05;1.95;;;21.30;61.40;;;;;;5072962;28;20115;-64
2021/05/30 10:15:13;;;;;;;2.20;2.10;;;21.40;61.50;;;;;;5074069;28;20028;-64
2021/05/30 10:17:41;;;;;;;1.77;1.67;;;21.40;61.00;;;;;;5074017;28;20077;-64
2021/05/30 10:20:14;;;;;;;2.45;2.25;;;21.30;60.90;;;;;;5073788;28;20028;-64
2021/05/30 10:22:42;;;;;;;2.45;1.90;;;21.30;60.90;;;;;;5074305;28;20384;-64
2021/05/30 10:25:10;;;;;;;2.00;1.90;;;21.30;61.20;;;;;;5074267;28;20384;-64
2021/05/30 10:27:37;;;;;;;2.10;2.00;;;21.30;61.00;;;;;;5070114;28;20070;-64
2021/05/30 10:30:13;;;;;;;1.80;1.70;;;21.30;61.30;;;;;;5053955;28;20492;-64
2021/05/30 10:32:47;;;;;;;3.92;2.03;;;21.20;61.30;;;;;;5054060;28;20021;-64
2021/05/30 10:35:26;;;;;;;2.10;2.00;;;21.10;61.40;;;;;;5062529;28;20029;-64
2021/05/30 10:37:55;;;;;;;2.25;2.10;;;21.10;61.40;;;;;;5072856;28;20027;-64
2021/05/30 10:40:21;;;;;;;2.20;2.00;;;21.10;61.60;;;;;;5073436;28;20068;-64
2021/05/30 10:43:20;;;;;;;3.17;2.33;;;21.00;61.40;;;;;;5073127;28;20044;-64
2021/05/30 10:45:51;;;;;;;2.20;2.10;;;21.00;61.00;;;;;;5050472;28;20066;-64
2021/05/30 10:48:19;;;;;;;2.10;2.00;;;21.00;61.50;;;;;;5073346;28;20042;-64
2021/05/30 10:54:07;;;;;;;3.97;3.55;;;21.00;61.60;;;;;;5048959;28;20428;-64
2021/05/30 10:56:39;;;;;;;4.30;3.28;;;21.00;61.80;;;;;;5073912;28;20025;-64
2021/05/30 10:59:04;;;;;;;3.20;2.90;;;21.00;62.00;;;;;;5074135;28;20067;-64
2021/05/30 11:01:40;;;;;;;4.55;4.07;;;21.00;62.00;;;;;;5066639;28;20060;-64
2021/05/30 11:04:33;;;;;;;5.20;3.97;;;21.10;61.90;;;;;;5056216;28;20033;-64
2021/05/30 11:07:21;;;;;;;3.42;2.90;;;21.10;61.50;;;;;;5073901;28;20364;-64
2021/05/30 11:09:49;;;;;;;3.42;3.10;;;21.10;61.80;;;;;;5073401;28;20024;-64
2021/05/30 11:12:28;;;;;;;3.38;3.03;;;21.10;61.70;;;;;;5073552;28;20028;-64
2021/05/30 11:15:10;;;;;;;3.78;3.03;;;21.10;61.60;;;;;;5073612;28;20036;-64
2021/05/30 11:17:52;;;;;;;3.42;3.13;;;21.20;61.10;;;;;;5073491;28;20023;-64
2021/05/30 11:20:37;;;;;;;2.60;2.40;;;21.20;61.40;;;;;;5069548;28;20028;-64
2021/05/30 11:23:08;;;;;;;4.95;4.07;;;21.20;60.90;;;;;;5071659;28;20032;-64
2021/05/30 11:25:36;;;;;;;2.95;2.65;;;21.20;60.40;;;;;;5072142;28;20029;-64
2021/05/30 11:28:06;;;;;;;2.20;2.00;;;21.20;60.30;;;;;;5072868;28;20028;-64
2021/05/30 11:30:39;;;;;;;2.78;2.33;;;21.30;60.40;;;;;;5072162;28;20032;-64
2021/05/30 11:33:07;;;;;;;3.53;2.70;;;21.30;60.60;;;;;;5068773;28;20058;-64
2021/05/30 11:35:33;;;;;;;2.15;2.05;;;21.30;60.90;;;;;;5072254;28;20450;-64
2021/05/30 11:37:59;;;;;;;2.60;2.40;;;21.40;60.90;;;;;;5071666;28;20035;-64
2021/05/30 11:40:26;;;;;;;3.08;2.50;;;21.50;60.90;;;;;;5069128;28;20024;-64
2021/05/30 11:42:52;;;;;;;2.85;2.63;;;21.50;60.80;;;;;;5070533;28;20419;-64
2021/05/30 11:45:34;;;;;;;2.47;2.33;;;21.50;60.50;;;;;;5070448;28;20033;-64
2021/05/30 11:48:08;;;;;;;2.47;2.28;;;21.60;61.00;;;;;;5070199;28;20080;-64
2021/05/30 11:50:37;;;;;;;2.30;2.10;;;21.60;60.10;;;;;;5070389;28;20357;-67
2021/05/30 11:53:23;;;;;;;2.35;2.20;;;21.60;60.40;;;;;;5069857;28;20020;-67
2021/05/30 11:55:49;;;;;;;2.20;2.00;;;21.70;60.10;;;;;;5071518;28;20032;-69
2021/05/30 11:58:15;;;;;;;1.77;1.67;;;21.70;59.80;;;;;;5073018;28;20036;-69
2021/05/30 12:00:41;;;;;;;2.65;2.00;;;21.70;59.70;;;;;;5073531;28;20032;-69
2021/05/30 12:03:08;;;;;;;2.22;2.13;;;21.80;59.70;;;;;;5075689;28;20064;-69
2021/05/30 12:05:34;;;;;;;2.75;2.10;;;21.80;59.40;;;;;;5074330;28;20476;-69
2021/05/30 12:08:10;;;;;;;2.20;1.70;;;21.80;59.50;;;;;;5068684;28;20083;-69
2021/05/30 12:10:53;;;;;;;2.20;1.95;;;21.80;59.90;;;;;;5071466;28;20041;-68
2021/05/30 12:13:27;;;;;;;2.00;1.90;;;21.80;59.50;;;;;;5071553;28;20028;-68
2021/05/30 12:15:54;;;;;;;1.90;1.80;;;21.80;59.90;;;;;;5074507;28;20025;-68
2021/05/30 12:18:21;;;;;;;1.95;1.75;;;21.80;60.00;;;;;;5074209;28;20031;-68
2021/05/30 12:20:47;;;;;;;2.22;2.03;;;21.80;60.30;;;;;;5073755;28;20012;-68
2021/05/30 12:23:18;;;;;;;2.30;2.10;;;21.80;60.50;;;;;;5075290;28;20027;-68
2021/05/30 12:26:04;;;;;;;2.95;2.20;;;21.80;60.90;;;;;;5073742;28;20029;-68
2021/05/30 12:28:36;;;;;;;3.15;2.22;;;21.70;60.60;;;;;;5074292;28;20012;-68
2021/05/30 12:31:11;;;;;;;2.42;2.22;;;21.70;60.80;;;;;;5072721;28;20086;-68
2021/05/30 12:33:52;;;;;;;2.35;2.15;;;21.60;60.70;;;;;;5072998;28;20016;-68
2021/05/30 12:36:37;;;;;;;2.83;2.33;;;21.60;61.00;;;;;;5071360;28;20403;-68
2021/05/30 12:39:05;;;;;;;2.35;2.15;;;21.60;61.10;;;;;;5074080;28;20141;-68
2021/05/30 12:41:33;;;;;;;3.20;2.25;;;21.60;61.40;;;;;;5075908;28;20020;-68
2021/05/30 12:44:05;;;;;;;4.07;2.40;;;21.60;61.50;;;;;;5074171;28;20032;-68
2021/05/30 12:46:32;;;;;;;2.58;2.38;;;21.60;61.40;;;;;;5059905;28;20435;-69
2021/05/30 12:48:57;;;;;;;2.28;2.08;;;21.60;61.50;;;;;;5072958;28;20078;-69
2021/05/30 12:51:26;;;;;;;4.43;2.80;;;21.60;61.50;;;;;;5074303;28;20392;-69
2021/05/30 12:53:53;;;;;;;2.65;2.45;;;21.60;61.80;;;;;;5073384;28;20020;-68
2021/05/30 12:56:23;;;;;;;2.70;2.50;;;21.50;61.90;;;;;;5072359;28;20078;-68
2021/05/30 12:59:15;;;;;;;3.08;2.60;;;21.50;62.40;;;;;;5074199;28;20017;-68
2021/05/30 13:01:43;;;;;;;4.53;2.40;;;21.40;62.30;;;;;;5072651;28;20293;-68
2021/05/30 13:04:17;;;;;;;3.17;2.47;;;21.30;62.50;;;;;;5071910;28;20644;-69